Time;durP1;ratioP1;P1;durP2;ratioP2;P2;SDS_P1;SDS_P2;PMS_P1;PMS_P2;Temp;Humidity;BMP_temperature;BMP_pressure;BME280_temperature;BME280_humidity;BME280_pressure;Samples;Min_cycle;Max_cycle;Signal;HPM_P1;HPM_P2
2022/11/16 00:01:47;;;;;;;1999.90;999.90;;;;;;;3.43;100.00;99781.47;5042618;28;20041;-75
2022/11/16 00:04:12;;;;;;;1999.90;999.90;;;;;;;3.41;100.00;99779.69;5039687;28;20048;-75
2022/11/16 00:06:38;;;;;;;1999.90;999.90;;;;;;;3.40;100.00;99776.19;5042025;28;20052;-75
2022/11/16 00:09:22;;;;;;;1999.90;999.90;;;;;;;3.41;100.00;99777.97;5040593;28;20041;-75
2022/11/16 00:11:52;;;;;;;1999.90;999.90;;;;;;;3.40;100.00;99777.94;5035526;28;20136;-75
2022/11/16 00:14:19;;;;;;;1999.90;999.90;;;;;;;3.37;100.00;99770.94;5039720;28;20029;-75
2022/11/16 00:16:44;;;;;;;1999.90;999.90;;;;;;;3.36;100.00;99773.56;5038263;28;20032;-75
2022/11/16 00:19:11;;;;;;;1999.90;999.90;;;;;;;3.34;100.00;99778.75;5039049;28;20076;-76
2022/11/16 00:21:37;;;;;;;1999.90;999.90;;;;;;;3.33;100.00;99771.78;5042421;28;20040;-75
2022/11/16 00:24:03;;;;;;;1999.90;999.90;;;;;;;3.31;100.00;99770.03;5041315;28;20566;-75
2022/11/16 00:26:29;;;;;;;1999.90;999.90;;;;;;;3.29;100.00;99775.22;5040056;28;20041;-75
2022/11/16 00:28:55;;;;;;;1999.90;999.90;;;;;;;3.28;100.00;99773.47;5040813;28;20029;-75
2022/11/16 00:31:21;;;;;;;1999.90;999.90;;;;;;;3.26;100.00;99772.56;4992394;28;20028;-75
2022/11/16 00:33:47;;;;;;;1999.90;999.90;;;;;;;3.25;100.00;99776.06;5039177;28;20045;-75
2022/11/16 00:36:12;;;;;;;1999.90;999.90;;;;;;;3.26;100.00;99767.34;5006441;28;20034;-75
2022/11/16 00:38:38;;;;;;;1999.90;999.90;;;;;;;3.27;100.00;99769.09;5041720;28;20041;-75
2022/11/16 00:41:05;;;;;;;1999.90;999.90;;;;;;;3.29;100.00;99772.59;5040227;28;20045;-75
2022/11/16 00:43:30;;;;;;;1999.90;999.90;;;;;;;3.30;100.00;99761.28;5042976;28;20030;-75
2022/11/16 00:45:55;;;;;;;1999.90;999.90;;;;;;;3.33;100.00;99763.06;5040198;28;20079;-76
2022/11/16 00:48:21;;;;;;;1999.90;999.90;;;;;;;3.32;100.00;99762.19;5005860;28;20041;-75
2022/11/16 00:50:47;;;;;;;1999.90;999.90;;;;;;;3.32;100.00;99763.94;5042735;28;20032;-75
2022/11/16 00:53:14;;;;;;;1999.90;999.90;;;;;;;3.29;100.00;99744.78;5046491;28;20029;-75
2022/11/16 00:55:40;;;;;;;1999.90;999.90;;;;;;;3.25;100.00;99750.84;5025469;28;20213;-75
2022/11/16 00:58:08;;;;;;;1999.90;999.90;;;;;;;3.27;100.00;99743.00;5025847;28;20038;-75
2022/11/16 01:00:33;;;;;;;1999.90;999.90;;;;;;;3.28;100.00;99747.38;5005476;28;20049;-75
2022/11/16 01:03:00;;;;;;;1999.90;999.90;;;;;;;3.24;100.00;99745.59;5027988;28;20414;-75
2022/11/16 01:05:25;;;;;;;1999.90;999.90;;;;;;;3.23;100.00;99733.44;5041934;28;20044;-75
2022/11/16 01:07:51;;;;;;;1999.90;999.90;;;;;;;3.22;100.00;99729.03;5042554;28;20040;-75
2022/11/16 01:10:19;;;;;;;1999.90;999.90;;;;;;;3.24;100.00;99720.38;5011127;28;20045;-75
2022/11/16 01:12:46;;;;;;;1999.90;999.90;;;;;;;3.23;100.00;99712.56;5043099;28;20547;-76
2022/11/16 01:15:13;;;;;;;1999.90;999.90;;;;;;;3.23;100.00;99707.34;5045743;28;20067;-75
2022/11/16 01:17:40;;;;;;;1999.90;999.90;;;;;;;3.24;100.00;99709.09;5012116;28;20045;-75
2022/11/16 01:20:09;;;;;;;1999.90;999.90;;;;;;;3.23;100.00;99707.34;5044278;28;20079;-75
2022/11/16 01:22:36;;;;;;;1999.90;999.90;;;;;;;3.22;100.00;99709.09;5013961;28;20029;-75
2022/11/16 01:25:02;;;;;;;1999.90;999.90;;;;;;;3.21;100.00;99701.25;5009447;28;20026;-75
2022/11/16 01:27:27;;;;;;;1999.90;999.90;;;;;;;3.21;100.00;99703.84;5045275;28;20032;-75
2022/11/16 01:29:54;;;;;;;1999.90;999.90;;;;;;;3.19;100.00;99698.59;5009704;28;20120;-75
2022/11/16 01:32:19;;;;;;;1999.90;999.90;;;;;;;3.20;100.00;99699.50;5042837;28;20033;-75
2022/11/16 01:34:44;;;;;;;1999.90;999.90;;;;;;;3.16;100.00;99692.50;5026820;28;20120;-75
2022/11/16 01:37:25;;;;;;;1999.90;999.90;;;;;;;3.15;100.00;99698.56;5007030;28;20042;-75
2022/11/16 01:39:50;;;;;;;1999.90;999.90;;;;;;;3.14;100.00;99696.81;5010054;28;20083;-75
2022/11/16 01:42:18;;;;;;;1999.90;999.90;;;;;;;3.14;100.00;99695.06;5025536;28;20442;-75
2022/11/16 01:44:44;;;;;;;1999.90;999.90;;;;;;;3.13;100.00;99692.47;5004881;28;20038;-75
2022/11/16 01:47:16;;;;;;;1999.90;999.90;;;;;;;3.14;100.00;99694.19;5037748;28;20100;-75
2022/11/16 01:49:46;;;;;;;1999.90;999.90;;;;;;;3.13;100.00;99702.91;5026368;28;20114;-75
2022/11/16 01:52:21;;;;;;;1999.90;999.90;;;;;;;3.16;100.00;99697.72;5011395;28;20080;-75
2022/11/16 01:54:50;;;;;;;1999.90;999.90;;;;;;;3.15;100.00;99689.00;5004458;28;20570;-75
2022/11/16 01:57:24;;;;;;;1999.90;999.90;;;;;;;3.18;100.00;99688.16;5009169;28;20044;-75
2022/11/16 01:59:58;;;;;;;1999.90;999.90;;;;;;;3.20;100.00;99692.53;5014407;28;20040;-75
2022/11/16 02:02:28;;;;;;;1999.90;999.90;;;;;;;3.23;100.00;99684.75;5040589;28;20045;-75
2022/11/16 02:04:54;;;;;;;1999.90;999.90;;;;;;;3.27;100.00;99686.53;5024846;28;20057;-75
2022/11/16 02:11:14;;;;;;;1999.90;999.90;;;;;;;3.35;100.00;99681.38;5015624;28;20377;-75
2022/11/16 02:14:02;;;;;;;1999.90;999.90;;;;;;;3.34;100.00;99677.03;5004606;28;20105;-75
2022/11/16 02:16:43;;;;;;;1999.90;999.90;;;;;;;3.35;100.00;99676.16;5038210;28;20049;-75
2022/11/16 02:19:09;;;;;;;1999.90;999.90;;;;;;;3.31;100.00;99671.78;5041224;28;20040;-75
2022/11/16 02:21:58;;;;;;;1999.90;999.90;;;;;;;3.28;100.00;99666.53;5043351;28;20029;-75
2022/11/16 02:25:08;;;;;;;1999.90;999.90;;;;;;;3.25;100.00;99666.53;5037859;28;20041;-75
2022/11/16 02:28:19;;;;;;;1999.90;999.90;;;;;;;3.23;100.00;99663.88;5024111;28;20045;-75
2022/11/16 02:30:49;;;;;;;1999.90;999.90;;;;;;;3.21;100.00;99667.34;4909966;29;20190;-75
2022/11/16 02:33:19;;;;;;;1999.90;999.90;;;;;;;3.22;100.00;99661.25;4922119;29;20032;-75
2022/11/16 02:35:49;;;;;;;1999.90;999.90;;;;;;;3.24;100.00;99664.75;4991526;28;20411;-75
2022/11/16 02:38:22;;;;;;;1999.90;999.90;;;;;;;3.27;100.00;99660.47;5024635;28;20028;-75
2022/11/16 02:40:56;;;;;;;1999.90;999.90;;;;;;;3.34;100.00;99656.16;5007270;28;20399;-75
2022/11/16 02:43:32;;;;;;;1999.90;999.90;;;;;;;3.36;100.00;99662.28;5079931;23;20052;-76
2022/11/16 02:46:03;;;;;;;1999.90;999.90;;;;;;;3.40;100.00;99661.41;5022209;28;20037;-76
2022/11/16 02:48:34;;;;;;;1999.90;999.90;;;;;;;3.41;100.00;99650.16;5045135;28;20055;-76
2022/11/16 02:51:01;;;;;;;1999.90;999.90;;;;;;;3.42;100.00;99657.09;5045108;28;20403;-76
2022/11/16 02:53:32;;;;;;;1999.90;999.90;;;;;;;3.44;100.00;99650.16;5062363;28;20028;-76
2022/11/16 02:55:58;;;;;;;1999.90;999.90;;;;;;;3.44;100.00;99647.56;5062592;28;20487;-76
2022/11/16 02:58:26;;;;;;;1999.90;999.90;;;;;;;3.47;100.00;99651.94;5063805;28;20478;-76
2022/11/16 03:01:17;;;;;;;1999.90;999.90;;;;;;;3.50;100.00;99647.59;5047785;28;20403;-76
2022/11/16 03:03:54;;;;;;;1999.90;999.90;;;;;;;3.51;100.00;99645.84;5045930;28;20029;-76
2022/11/16 03:06:30;;;;;;;1999.90;999.90;;;;;;;3.49;100.00;99645.84;5062168;28;20048;-77
2022/11/16 03:09:01;;;;;;;1999.90;999.90;;;;;;;3.48;100.00;99644.13;5061623;28;20690;-76
2022/11/16 03:14:20;;;;;;;1999.90;999.90;;;;;;;3.51;100.00;99636.31;5042046;28;20040;-76
2022/11/16 03:16:51;;;;;;;1999.90;999.90;;;;;;;3.51;100.00;99640.63;5062791;28;20502;-76
2022/11/16 03:19:28;;;;;;;1999.90;999.90;;;;;;;3.52;100.00;99629.34;5061938;28;20078;-76
2022/11/16 03:22:01;;;;;;;1999.90;999.90;;;;;;;3.50;100.00;99624.13;5059774;28;20036;-76
2022/11/16 03:24:28;;;;;;;1999.90;999.90;;;;;;;3.52;100.00;99621.53;5049153;28;20032;-76
2022/11/16 03:27:23;;;;;;;1999.90;999.90;;;;;;;3.54;100.00;99617.22;5079320;28;20036;-76
2022/11/16 03:30:03;;;;;;;1999.90;999.90;;;;;;;3.53;100.00;99614.56;5068722;28;20601;-76
2022/11/16 03:32:36;;;;;;;1999.90;999.90;;;;;;;3.55;100.00;99608.50;5082328;28;20024;-76
2022/11/16 03:35:14;;;;;;;1999.90;999.90;;;;;;;3.57;100.00;99608.53;5042590;28;20178;-76
2022/11/16 03:37:40;;;;;;;1999.90;999.90;;;;;;;3.65;100.00;99614.69;5047763;28;20443;-76
2022/11/16 03:40:10;;;;;;;1999.90;999.90;;;;;;;3.79;100.00;99606.94;5061249;28;20029;-76
2022/11/16 03:42:36;;;;;;;1999.90;999.90;;;;;;;3.92;100.00;99609.63;5063303;28;20032;-76
2022/11/16 03:45:03;;;;;;;1999.90;999.90;;;;;;;4.12;100.00;99611.47;5081041;28;20154;-76
2022/11/16 03:47:29;;;;;;;1999.90;999.90;;;;;;;4.27;100.00;99610.66;5061719;28;20038;-77
2022/11/16 03:49:54;;;;;;;1999.90;999.90;;;;;;;4.44;100.00;99613.38;5064643;28;20119;-76
2022/11/16 03:52:22;;;;;;;1999.90;999.90;;;;;;;4.55;100.00;99604.69;5060939;28;20028;-76
2022/11/16 03:54:48;;;;;;;1999.90;999.90;;;;;;;4.66;100.00;99609.94;5062060;28;20119;-76
2022/11/16 03:57:17;;;;;;;1999.90;999.90;;;;;;;4.76;100.00;99606.47;5063072;28;20050;-76
2022/11/16 03:59:46;;;;;;;;;;;;;;;4.91;100.00;99612.63;5046015;28;20031;-76
2022/11/16 04:02:12;;;;;;;1999.90;999.90;;;;;;;4.95;100.00;99614.38;5082441;28;19912;-76
2022/11/16 04:29:17;;;;;;;1999.90;999.90;;;;;;;5.52;100.00;99615.28;5083571;28;20064;-76
2022/11/16 04:40:02;;;;;;;1999.90;999.90;;;;;;;5.69;100.00;99621.41;5046544;28;20112;-77
2022/11/16 04:42:28;;;;;;;1999.90;999.90;;;;;;;5.75;100.00;99617.91;5077959;28;20043;-76
2022/11/16 04:47:48;;;;;;;1999.90;999.90;;;;;;;5.90;100.00;99606.53;5068716;28;20170;-76
2022/11/16 04:50:13;;;;;;;1999.90;999.90;;;;;;;5.97;100.00;99608.28;5045133;28;20903;-76
2022/11/16 04:52:40;;;;;;;1999.90;999.90;;;;;;;6.00;100.00;99597.81;5067456;28;20027;-76
2022/11/16 04:55:08;;;;;;;1999.90;999.90;;;;;;;6.04;100.00;99596.91;5064104;28;20402;-76
2022/11/16 04:57:34;;;;;;;1999.90;999.90;;;;;;;6.05;100.00;99596.06;5085745;28;20028;-76
2022/11/16 04:59:59;;;;;;;1999.90;999.90;;;;;;;6.06;100.00;99589.94;5067884;28;20032;-76
2022/11/16 05:02:25;;;;;;;1999.90;999.90;;;;;;;6.05;100.00;99580.34;5064399;28;20487;-76
2022/11/16 05:04:54;;;;;;;1999.90;999.90;;;;;;;6.01;100.00;99580.34;5066766;28;20092;-75
2022/11/16 05:07:21;;;;;;;1999.90;999.90;;;;;;;6.04;100.00;99589.06;5066028;28;20031;-76
2022/11/16 05:09:48;;;;;;;1999.90;999.90;;;;;;;6.02;100.00;99580.31;5065023;28;20100;-76
2022/11/16 05:12:24;;;;;;;1999.90;999.90;;;;;;;6.04;100.00;99583.81;5067747;28;20097;-76
2022/11/16 05:14:54;;;;;;;1999.90;999.90;;;;;;;6.05;100.00;99595.16;5049517;28;20120;-77
2022/11/16 05:17:22;;;;;;;1999.90;999.90;;;;;;;6.11;100.00;99598.66;5057507;28;20029;-76
2022/11/16 05:22:38;;;;;;;1999.90;999.90;;;;;;;6.21;100.00;99616.94;5064826;28;20110;-76
2022/11/16 05:25:04;;;;;;;1999.90;999.90;;;;;;;6.24;100.00;99623.06;5067137;28;20039;-77
2022/11/16 05:27:30;;;;;;;1999.90;999.90;;;;;;;6.27;100.00;99625.66;5066676;28;20048;-77
2022/11/16 05:29:56;;;;;;;1999.90;999.90;;;;;;;6.35;100.00;99625.66;5066058;28;20487;-77
2022/11/16 05:32:24;;;;;;;1999.90;999.90;;;;;;;6.36;100.00;99615.13;5062649;28;20024;-76
2022/11/16 05:34:51;;;;;;;1999.90;999.90;;;;;;;6.43;100.00;99621.25;5064074;28;20032;-76
2022/11/16 05:37:17;;;;;;;1999.90;999.90;;;;;;;6.49;100.00;99615.09;5064751;28;20032;-76
2022/11/16 05:39:44;;;;;;;1999.90;999.90;;;;;;;6.47;100.00;99615.13;5063413;28;20033;-77
2022/11/16 05:42:09;;;;;;;1999.90;999.90;;;;;;;6.47;100.00;99617.75;5066824;28;20450;-76
2022/11/16 05:44:35;;;;;;;1999.90;999.90;;;;;;;6.45;100.00;99611.63;5071674;28;20020;-77
2022/11/16 05:47:01;;;;;;;1999.90;999.90;;;;;;;6.46;100.00;99609.88;5063856;28;20413;-77
2022/11/16 05:49:27;;;;;;;1999.90;999.90;;;;;;;6.42;100.00;99614.28;5066983;28;20086;-77
2022/11/16 05:51:53;;;;;;;1999.90;999.90;;;;;;;6.39;100.00;99610.78;5032032;28;20033;-76
2022/11/16 05:54:23;;;;;;;1999.90;999.90;;;;;;;6.43;100.00;99608.13;5062301;28;20028;-76
2022/11/16 05:56:49;;;;;;;1999.90;999.90;;;;;;;6.45;100.00;99601.16;5077471;28;20101;-76
2022/11/16 05:59:18;;;;;;;1999.90;999.90;;;;;;;6.43;100.00;99597.66;5031667;28;20029;-76
2022/11/16 06:01:46;;;;;;;1999.90;999.90;;;;;;;6.42;100.00;99603.78;5060002;28;20050;-75
2022/11/16 06:04:12;;;;;;;1999.90;999.90;;;;;;;6.44;100.00;99609.88;5062067;28;20651;-76
2022/11/16 06:06:38;;;;;;;1999.90;999.90;;;;;;;6.43;100.00;99618.63;5063925;28;20025;-76
2022/11/16 06:09:04;;;;;;;1999.90;999.90;;;;;;;6.45;100.00;99627.38;5062748;28;20036;-76
2022/11/16 06:11:31;;;;;;;1999.90;999.90;;;;;;;6.48;100.00;99626.47;5065288;28;20058;-76
2022/11/16 06:13:57;;;;;;;1999.90;999.90;;;;;;;6.46;100.00;99633.47;5062020;28;20062;-76
2022/11/16 06:16:22;;;;;;;1999.90;999.90;;;;;;;6.43;100.00;99626.50;5082197;28;20028;-76
2022/11/16 06:18:48;;;;;;;1999.90;999.90;;;;;;;6.48;100.00;99629.97;5063268;28;20039;-76
2022/11/16 06:21:17;;;;;;;1999.90;999.90;;;;;;;6.49;100.00;99629.06;5063526;28;20553;-76
2022/11/16 06:23:43;;;;;;;1999.90;999.90;;;;;;;6.47;100.00;99630.84;5066113;28;20032;-76
2022/11/16 06:26:08;;;;;;;1999.90;999.90;;;;;;;6.52;100.00;99633.44;5066097;28;20033;-76
2022/11/16 06:28:35;;;;;;;1999.90;999.90;;;;;;;6.51;100.00;99627.31;5059128;28;20075;-76
2022/11/16 06:31:01;;;;;;;1999.90;999.90;;;;;;;6.51;100.00;99624.72;5062716;28;20036;-76
2022/11/16 06:33:32;;;;;;;1999.90;999.90;;;;;;;6.53;100.00;99620.34;5050721;28;20402;-76
2022/11/16 06:35:57;;;;;;;1999.90;999.90;;;;;;;6.53;100.00;99622.97;5059398;28;20028;-76
2022/11/16 06:38:23;;;;;;;1999.90;999.90;;;;;;;6.59;100.00;99629.91;5056137;28;20035;-76
2022/11/16 06:40:56;;;;;;;1999.90;999.90;;;;;;;6.59;100.00;99630.78;5066532;28;20048;-76
2022/11/16 06:43:24;;;;;;;1999.90;999.90;;;;;;;6.60;100.00;99629.03;5060234;28;20027;-76
2022/11/16 06:45:54;;;;;;;1999.90;999.90;;;;;;;6.64;100.00;99630.78;5067079;28;20422;-76
2022/11/16 06:48:20;;;;;;;1999.90;999.90;;;;;;;6.68;100.00;99639.47;5062440;28;20036;-77
2022/11/16 06:50:48;;;;;;;1999.90;999.90;;;;;;;6.71;100.00;99647.34;5064575;28;20127;-76
2022/11/16 06:53:16;;;;;;;1999.90;999.90;;;;;;;6.71;100.00;99645.59;5061944;28;20043;-76
2022/11/16 06:55:42;;;;;;;1999.90;999.90;;;;;;;6.73;100.00;99642.94;5065398;28;20025;-76
2022/11/16 06:58:09;;;;;;;1999.90;999.90;;;;;;;6.65;100.00;99657.84;5059258;28;20028;-76
2022/11/16 07:00:35;;;;;;;1999.90;999.90;;;;;;;6.48;100.00;99653.56;5066263;28;20028;-76
2022/11/16 07:03:02;;;;;;;1999.90;999.90;;;;;;;6.49;100.00;99639.56;5030951;28;20459;-76
2022/11/16 07:05:28;;;;;;;1999.90;999.90;;;;;;;6.61;100.00;99637.78;5064128;28;20492;-76
2022/11/16 07:07:55;;;;;;;1999.90;999.90;;;;;;;6.67;100.00;99635.13;5055612;28;20032;-76
2022/11/16 07:10:21;;;;;;;1999.90;999.90;;;;;;;6.70;100.00;99629.88;5041790;28;20032;-76
2022/11/16 07:12:50;;;;;;;1999.90;999.90;;;;;;;6.67;100.00;99622.88;5061538;28;20436;-77
2022/11/16 07:15:18;;;;;;;1999.90;999.90;;;;;;;6.68;100.00;99629.00;5064840;28;20036;-76
2022/11/16 07:17:45;;;;;;;1999.90;999.90;;;;;;;6.68;100.00;99621.13;5060644;28;20028;-76
2022/11/16 07:20:11;;;;;;;1999.90;999.90;;;;;;;6.70;100.00;99615.00;5062088;28;20047;-76
2022/11/16 07:22:37;;;;;;;1999.90;999.90;;;;;;;6.70;100.00;99620.25;5056703;28;20534;-76
2022/11/16 07:25:02;;;;;;;1999.90;999.90;;;;;;;6.69;100.00;99618.50;5063602;28;20030;-76
2022/11/16 07:27:28;;;;;;;1999.90;999.90;;;;;;;6.73;100.00;99611.47;5081603;28;20026;-76
2022/11/16 07:29:54;;;;;;;1999.90;999.90;;;;;;;6.78;100.00;99618.44;5064566;28;20520;-76
2022/11/16 07:32:41;;;;;;;1999.90;999.90;;;;;;;6.76;100.00;99616.75;5065894;28;20138;-76
2022/11/16 07:35:27;;;;;;;1999.90;999.90;;;;;;;6.78;100.00;99615.81;5061577;28;20082;-76
2022/11/16 07:37:52;;;;;;;1999.90;999.90;;;;;;;6.82;100.00;99613.22;5077827;28;20051;-76
2022/11/16 07:40:19;;;;;;;1999.90;999.90;;;;;;;6.84;100.00;99617.56;5064345;28;20028;-76
2022/11/16 07:42:45;;;;;;;1999.90;999.90;;;;;;;6.86;100.00;99623.66;5061905;28;20029;-77
2022/11/16 07:45:33;;;;;;;1999.90;999.90;;;;;;;6.90;100.00;99614.91;5064866;28;20085;-76
2022/11/16 07:48:04;;;;;;;1999.90;999.90;;;;;;;6.93;100.00;99607.00;5060823;28;20086;-76
2022/11/16 07:50:48;;;;;;;1999.90;999.90;;;;;;;6.98;100.00;99605.22;5079504;28;20114;-76
2022/11/16 07:53:15;;;;;;;1999.90;999.90;;;;;;;7.03;100.00;99606.06;5064210;28;20050;-76
2022/11/16 07:55:40;;;;;;;1999.90;999.90;;;;;;;7.07;100.00;99606.91;5057617;28;20470;-76
2022/11/16 07:58:07;;;;;;;1999.90;999.90;;;;;;;7.10;100.00;99599.03;5067527;28;20032;-76
2022/11/16 08:00:32;;;;;;;1999.90;999.90;;;;;;;7.17;100.00;99598.09;5082228;28;20039;-76
2022/11/16 08:03:06;;;;;;;1999.90;999.90;;;;;;;7.21;100.00;99594.56;5058731;28;20112;-76
2022/11/16 08:05:32;;;;;;;1999.90;999.90;;;;;;;7.23;100.00;99594.53;5063251;28;20616;-76
2022/11/16 08:07:57;;;;;;;1999.90;999.90;;;;;;;7.29;100.00;99591.91;5060804;28;20032;-76
2022/11/16 08:10:24;;;;;;;1999.90;999.90;;;;;;;7.35;100.00;99586.59;5063833;28;20027;-76
2022/11/16 08:12:49;;;;;;;1999.90;999.90;;;;;;;7.36;100.00;99585.72;5061434;28;20032;-76
2022/11/16 08:15:16;;;;;;;1999.90;999.90;;;;;;;7.40;100.00;99589.19;5065242;28;20038;-76
2022/11/16 08:17:42;;;;;;;1999.90;999.90;;;;;;;7.45;100.00;99579.50;5061875;28;20032;-76
2022/11/16 08:20:10;;;;;;;1999.90;999.90;;;;;;;7.49;100.00;99583.84;5062583;28;20036;-76
2022/11/16 08:22:35;;;;;;;1999.90;999.90;;;;;;;7.50;100.00;99580.34;5078910;28;20040;-76
2022/11/16 08:25:01;;;;;;;1999.90;999.90;;;;;;;7.51;100.00;99575.97;5064901;28;20070;-75
2022/11/16 08:27:27;;;;;;;1999.90;999.90;;;;;;;7.55;100.00;99578.56;5061602;28;20059;-76
2022/11/16 08:29:55;;;;;;;1999.90;999.90;;;;;;;7.59;100.00;99576.75;5064089;28;20036;-76
2022/11/16 08:32:20;;;;;;;1999.90;999.90;;;;;;;7.61;100.00;99578.47;5062025;28;20045;-76
2022/11/16 08:34:45;;;;;;;1999.90;999.90;;;;;;;7.61;100.00;99575.00;5062660;28;20122;-76
2022/11/16 08:37:11;;;;;;;1999.90;999.90;;;;;;;7.63;100.00;99568.84;5062724;28;20032;-76
2022/11/16 08:39:41;;;;;;;1999.90;999.90;;;;;;;7.64;100.00;99567.06;5060814;28;20042;-76
2022/11/16 08:42:07;;;;;;;1999.90;999.90;;;;;;;7.70;100.00;99567.00;5063818;28;20112;-76
2022/11/16 08:44:33;;;;;;;1999.90;999.90;;;;;;;7.71;100.00;99574.03;5061787;28;20028;-76
2022/11/16 08:47:02;;;;;;;1999.90;999.90;;;;;;;7.63;100.00;99570.59;5061899;28;20032;-78
2022/11/16 08:49:36;;;;;;;1999.90;999.90;;;;;;;7.61;100.00;99575.84;5064303;28;20039;-77
2022/11/16 08:52:01;;;;;;;1999.90;999.90;;;;;;;7.68;100.00;99568.81;5076531;28;20028;-78
2022/11/16 08:54:29;;;;;;;1999.90;999.90;;;;;;;7.68;100.00;99571.44;5057733;28;20051;-78
2022/11/16 08:56:55;;;;;;;1999.90;999.90;;;;;;;7.76;100.00;99580.09;5062338;28;20063;-78
2022/11/16 08:59:21;;;;;;;1999.90;999.90;;;;;;;7.83;100.00;99573.91;5063517;28;20027;-78
2022/11/16 09:01:49;;;;;;;1999.90;999.90;;;;;;;7.90;100.00;99580.81;5078742;28;20111;-78
2022/11/16 09:04:15;;;;;;;1999.90;999.90;;;;;;;7.89;100.00;99579.09;5081628;28;20505;-78
2022/11/16 09:06:40;;;;;;;1999.90;999.90;;;;;;;7.92;100.00;99580.81;5079876;28;20538;-78
2022/11/16 09:09:06;;;;;;;1999.90;999.90;;;;;;;7.99;100.00;99579.88;5081138;28;20032;-78
2022/11/16 09:11:31;;;;;;;1999.90;999.90;;;;;;;8.12;100.00;99577.94;5082105;28;20085;-78
2022/11/16 09:13:57;;;;;;;1999.90;999.90;;;;;;;8.23;100.00;99573.47;5060204;28;20067;-78
2022/11/16 09:16:23;;;;;;;1999.90;999.90;;;;;;;8.32;100.00;99578.59;5080886;28;20041;-78
2022/11/16 09:18:50;;;;;;;1999.90;999.90;;;;;;;8.33;100.00;99577.72;5082235;28;20036;-78
2022/11/16 09:21:20;;;;;;;1999.90;999.90;;;;;;;8.34;100.00;99579.44;5081014;28;20040;-78
2022/11/16 09:23:47;;;;;;;1999.90;999.90;;;;;;;8.36;100.00;99568.94;5076148;28;20033;-78
2022/11/16 09:26:12;;;;;;;1999.90;999.90;;;;;;;8.38;100.00;99568.88;5080459;28;20043;-78
2022/11/16 09:28:38;;;;;;;1999.90;999.90;;;;;;;8.37;100.00;99575.91;5068792;28;20035;-78
2022/11/16 09:31:04;;;;;;;1999.90;999.90;;;;;;;8.30;100.00;99564.59;5082440;28;20037;-78
2022/11/16 09:33:31;;;;;;;1999.90;999.90;;;;;;;8.27;100.00;99569.03;5084172;28;20040;-78
2022/11/16 09:36:08;;;;;;;1999.90;999.90;;;;;;;8.32;100.00;99568.06;5082018;28;20033;-78
2022/11/16 09:38:40;;;;;;;1999.90;999.90;;;;;;;8.33;100.00;99564.56;5077912;28;20032;-78
2022/11/16 09:41:14;;;;;;;1999.90;999.90;;;;;;;8.31;100.00;99563.72;5081736;28;20044;-78
2022/11/16 09:44:04;;;;;;;1999.90;999.90;;;;;;;8.30;100.00;99566.34;5084906;28;20043;-78
2022/11/16 09:46:40;;;;;;;1999.90;999.90;;;;;;;8.30;100.00;99566.34;5084943;28;20062;-78
2022/11/16 09:49:18;;;;;;;1999.90;999.90;;;;;;;8.37;100.00;99570.66;5081476;28;20040;-76
2022/11/16 09:51:47;;;;;;;1999.90;999.90;;;;;;;8.44;100.00;99564.47;5078045;28;20033;-76
2022/11/16 09:54:26;;;;;;;1999.90;999.90;;;;;;;8.49;100.00;99560.03;5083683;28;20036;-76
2022/11/16 09:56:58;;;;;;;1999.90;999.90;;;;;;;8.55;100.00;99559.06;5081050;28;20486;-76
2022/11/16 09:59:39;;;;;;;1999.90;999.90;;;;;;;8.53;100.00;99555.56;5081634;28;20037;-76
2022/11/16 10:02:21;;;;;;;1999.90;999.90;;;;;;;8.57;100.00;99552.03;5076321;28;20106;-76
2022/11/16 10:05:00;;;;;;;1999.90;999.90;;;;;;;8.62;100.00;99544.94;5084542;28;20426;-76
2022/11/16 10:07:34;;;;;;;1999.90;999.90;;;;;;;8.61;100.00;99542.31;5079077;28;20040;-76
2022/11/16 10:10:00;;;;;;;1999.90;999.90;;;;;;;8.53;100.00;99545.06;5081229;28;20132;-76
2022/11/16 10:12:44;;;;;;;1999.90;999.90;;;;;;;8.53;100.00;99547.69;5063398;28;20514;-76
2022/11/16 10:15:33;;;;;;;1999.90;999.90;;;;;;;8.47;100.00;99550.41;5065722;28;20032;-76
2022/11/16 10:18:15;;;;;;;1999.90;999.90;;;;;;;8.48;100.00;99541.63;5050476;28;20055;-76
2022/11/16 10:21:02;;;;;;;1999.90;999.90;;;;;;;8.49;100.00;99536.34;5082603;28;20129;-76
2022/11/16 10:23:37;;;;;;;1999.90;999.90;;;;;;;8.51;100.00;99538.94;5045955;28;20083;-76
2022/11/16 10:26:28;;;;;;;1999.90;999.90;;;;;;;8.53;100.00;99530.13;5075451;28;20036;-78
2022/11/16 10:29:05;;;;;;;1999.90;999.90;;;;;;;8.62;100.00;99523.00;5078157;28;20046;-78
2022/11/16 10:32:24;;;;;;;1999.90;999.90;;;;;;;8.66;100.00;99524.72;5083504;28;20038;-78
2022/11/16 10:34:55;;;;;;;1999.90;999.90;;;;;;;8.72;100.00;99519.34;5029535;28;20048;-78
2022/11/16 10:37:23;;;;;;;1999.90;999.90;;;;;;;8.75;100.00;99517.56;5075911;28;20029;-78
2022/11/16 10:39:52;;;;;;;1999.90;999.90;;;;;;;8.81;100.00;99510.47;5081914;28;20067;-78
2022/11/16 10:42:38;;;;;;;1999.90;999.90;;;;;;;8.78;100.00;99514.88;5076896;28;20087;-78
2022/11/16 10:45:10;;;;;;;1999.90;999.90;;;;;;;8.78;100.00;99509.63;5060577;28;20032;-78
2022/11/16 10:47:51;;;;;;;1999.90;999.90;;;;;;;8.78;100.00;99514.88;5083691;28;20036;-78
2022/11/16 10:50:36;;;;;;;1999.90;999.90;;;;;;;8.73;100.00;99503.56;5075369;28;20117;-78
2022/11/16 10:53:02;;;;;;;1999.90;999.90;;;;;;;8.77;100.00;99507.88;5078049;28;20038;-78
2022/11/16 10:55:28;;;;;;;1999.90;999.90;;;;;;;8.85;100.00;99505.13;5060726;28;20029;-78
2022/11/16 10:58:02;;;;;;;1999.90;999.90;;;;;;;8.89;100.00;99506.81;5078481;28;20115;-78
2022/11/16 11:00:42;;;;;;;1999.90;999.90;;;;;;;8.91;100.00;99497.16;5062102;28;20028;-78
2022/11/16 11:03:13;;;;;;;1999.90;999.90;;;;;;;8.93;100.00;99503.25;5070446;28;20041;-74
2022/11/16 11:05:52;;;;;;;1999.90;999.90;;;;;;;8.96;100.00;99503.22;5087760;28;20490;-76
2022/11/16 11:08:29;;;;;;;1999.90;999.90;;;;;;;8.87;100.00;99500.72;5040191;28;20036;-77
2022/11/16 11:12:36;;;;;;;1999.90;999.90;;;;;;;8.80;100.00;99495.56;5044186;28;20036;-77
2022/11/16 11:14:03;;;;;;;1999.90;999.90;;;;;;;8.80;100.00;99496.44;5078105;28;20606;-76
2022/11/16 11:16:29;;;;;;;1999.90;999.90;;;;;;;8.79;100.00;99499.97;5043299;28;20049;-76
2022/11/16 11:18:54;;;;;;;1999.90;999.90;;;;;;;8.80;100.00;99490.31;5058753;28;20040;-78
2022/11/16 11:21:24;;;;;;;1999.90;999.90;;;;;;;8.81;100.00;99486.81;5074843;28;20110;-77
2022/11/16 11:23:51;;;;;;;1999.90;999.90;;;;;;;8.80;100.00;99490.31;5081346;28;20126;-77
2022/11/16 11:26:23;;;;;;;1999.90;999.90;;;;;;;8.85;100.00;99491.09;5063924;28;20076;-77
2022/11/16 11:28:48;;;;;;;1999.90;999.90;;;;;;;8.78;100.00;99492.97;5080185;28;20055;-77
2022/11/16 11:31:26;;;;;;;1999.90;999.90;;;;;;;8.73;100.00;99492.19;5075070;28;20111;-77
2022/11/16 11:33:55;;;;;;;1999.90;999.90;;;;;;;8.69;100.00;99493.97;5062779;28;20073;-77
2022/11/16 11:36:23;;;;;;;1999.90;999.90;;;;;;;8.67;100.00;99489.63;5073350;28;20067;-77
2022/11/16 11:38:54;;;;;;;1999.90;999.90;;;;;;;8.68;100.00;99491.38;5082172;28;20040;-76
2022/11/16 11:41:20;;;;;;;1999.90;999.90;;;;;;;8.72;100.00;99482.53;5076126;28;20175;-77
2022/11/16 11:44:02;;;;;;;1999.90;999.90;;;;;;;8.77;100.00;99492.09;5075187;28;20119;-77
2022/11/16 11:46:29;;;;;;;1999.90;999.90;;;;;;;8.68;100.00;99483.47;5073211;28;20081;-77
2022/11/16 11:49:07;;;;;;;1999.90;999.90;;;;;;;8.70;100.00;99486.97;5080119;28;20070;-77
2022/11/16 11:51:37;;;;;;;1999.90;999.90;;;;;;;8.75;100.00;99483.38;5081707;28;20028;-77
2022/11/16 11:54:03;;;;;;;1999.90;999.90;;;;;;;8.76;100.00;99485.09;5076171;28;20076;-77